createdAt,value
2024-03-28T00:00:57.246Z,96109.7
2024-03-28T00:06:33.322Z,96124.8
2024-03-28T00:12:08.166Z,96141.9
2024-03-28T00:17:43.122Z,96165
2024-03-28T00:23:18.626Z,96156.1
2024-03-28T00:28:53.700Z,96170.6
2024-03-28T00:34:28.456Z,96186.9
2024-03-28T00:40:03.373Z,96229.7
2024-03-28T00:45:39.493Z,96252.5
2024-03-28T00:51:14.239Z,96268.5
2024-03-28T00:56:49.319Z,96286.9
2024-03-28T01:02:24.875Z,96289.1
2024-03-28T01:08:00.421Z,96295.1
2024-03-28T01:13:35.561Z,96295.2
2024-03-28T01:19:11.801Z,96307.9
2024-03-28T01:24:47.106Z,96309.8
2024-03-28T01:30:22.056Z,96305.9
2024-03-28T01:35:57.094Z,96320.4
2024-03-28T01:41:32.351Z,96347.2
2024-03-28T01:47:42.128Z,96355.1
2024-03-28T01:53:38.566Z,96358
2024-03-28T01:59:13.607Z,96352.5
2024-03-28T02:04:49.225Z,96347.1
2024-03-28T02:10:24.648Z,96349.3
2024-03-28T02:15:59.519Z,96352.2
2024-03-28T02:21:35.564Z,96371
2024-03-28T02:27:10.681Z,96348.2
2024-03-28T02:32:45.560Z,96354.7
2024-03-28T02:38:20.899Z,96346.5
2024-03-28T02:43:56.266Z,96349.5
2024-03-28T02:49:31.411Z,96368.9
2024-03-28T02:55:06.339Z,96363.9
2024-03-28T03:00:41.601Z,96349.8
2024-03-28T03:06:16.439Z,96373.4
2024-03-28T03:11:51.338Z,96358.8
2024-03-28T03:17:26.507Z,96359
2024-03-28T03:23:01.774Z,96352.5
2024-03-28T03:28:37.146Z,96344.5
2024-03-28T03:34:12.645Z,96343.7
2024-03-28T03:39:48.118Z,96340.3
2024-03-28T03:45:23.301Z,96337.4
2024-03-28T03:50:58.507Z,96349.8
2024-03-28T03:56:34.081Z,96347.8
2024-03-28T04:02:09.203Z,96356.9
2024-03-28T04:07:44.677Z,96353.9
2024-03-28T04:13:19.594Z,96368.8
2024-03-28T04:18:54.737Z,96368.8
2024-03-28T04:24:29.876Z,96382.3
2024-03-28T04:30:04.714Z,96390.2
2024-03-28T04:35:39.990Z,96381.7
2024-03-28T04:41:15.022Z,96384.5
2024-03-28T04:46:49.889Z,96386.1
2024-03-28T04:52:25.079Z,96389.6
2024-03-28T04:58:00.328Z,96397.5
2024-03-28T05:03:35.297Z,96410.8
2024-03-28T05:09:10.359Z,96398.2
2024-03-28T05:14:45.591Z,96409.9
2024-03-28T05:20:20.422Z,96407.5
2024-03-28T05:25:56.406Z,96417.2
2024-03-28T05:31:31.750Z,96432.8
2024-03-28T05:37:06.763Z,96443.5
2024-03-28T05:42:47.772Z,96456.2
2024-03-28T05:48:23.383Z,96454.1
2024-03-28T05:53:58.367Z,96465.7
2024-03-28T05:59:33.305Z,96478.4
2024-03-28T06:05:09.293Z,96476.5
2024-03-28T06:10:50.628Z,96492.1
2024-03-28T06:16:26.314Z,96504.3
2024-03-28T06:22:02.671Z,96520.7
2024-03-28T06:27:37.740Z,96502.5
2024-03-28T06:33:12.823Z,96520.6
2024-03-28T06:38:48.153Z,96521.7
2024-03-28T06:44:22.969Z,96532.1
2024-03-28T06:49:58.366Z,96540.7
2024-03-28T06:55:33.983Z,96543.8
2024-03-28T07:01:08.759Z,96551.8
2024-03-28T07:06:43.952Z,96560.6
2024-03-28T07:12:19.233Z,96561.1
2024-03-28T07:17:54.246Z,96574
2024-03-28T07:23:29.490Z,96577.3
2024-03-28T07:29:05.201Z,96586.3
2024-03-28T07:34:41.152Z,96587.2
2024-03-28T07:40:16.608Z,96598.1
2024-03-28T07:45:52.479Z,96602
2024-03-28T07:51:27.641Z,96605.1
2024-03-28T07:57:02.383Z,96604
2024-03-28T08:02:37.910Z,96615.1
2024-03-28T08:08:13.510Z,96627.3
2024-03-28T08:13:48.813Z,96627
2024-03-28T08:19:24.139Z,96634.2
2024-03-28T08:25:00.637Z,96640.8
2024-03-28T08:30:35.737Z,96636.3
2024-03-28T08:36:11.519Z,96659.6
2024-03-28T08:41:46.528Z,96659.4
2024-03-28T08:47:22.167Z,96664.5
2024-03-28T08:53:00.170Z,96666.8
2024-03-28T08:58:35.907Z,96668.7
2024-03-28T09:04:11.199Z,96692.3
2024-03-28T09:09:46.540Z,96685.1
2024-03-28T09:15:21.686Z,96676.1
2024-03-28T09:20:56.834Z,96680.2
2024-03-28T09:26:32.322Z,96678.4
2024-03-28T09:32:07.582Z,96672.8
2024-03-28T09:37:42.482Z,96681.8
2024-03-28T09:43:17.922Z,96678.1
2024-03-28T09:48:52.823Z,96666.8
2024-03-28T09:54:27.974Z,96668.8
2024-03-28T10:00:03.171Z,96672.2
2024-03-28T10:05:38.318Z,96675.1
2024-03-28T10:11:13.218Z,96680.5
2024-03-28T10:16:48.699Z,96694.2
2024-03-28T10:22:23.449Z,96694.3
2024-03-28T10:27:58.484Z,96698.3
2024-03-28T10:33:33.617Z,96704.3
2024-03-28T10:39:08.851Z,96707.2
2024-03-28T10:44:43.778Z,96704.1
2024-03-28T10:50:19.321Z,96690.4
2024-03-28T10:55:54.472Z,96696
2024-03-28T11:01:32.949Z,96680
2024-03-28T11:07:17.099Z,96681
2024-03-28T11:12:52.265Z,96672.5
2024-03-28T11:18:27.650Z,96664.3
2024-03-28T11:24:03.322Z,96654.9
2024-03-28T11:29:38.463Z,96664.4
2024-03-28T11:35:13.722Z,96672.9
2024-03-28T11:40:49.204Z,96658.3
2024-03-28T11:46:24.158Z,96659.4
2024-03-28T11:51:59.411Z,96661.2
2024-03-28T11:57:35.106Z,96663.9
2024-03-28T12:03:10.298Z,96661.5
2024-03-28T12:08:45.839Z,96651.5
2024-03-28T12:14:20.971Z,96641.7
2024-03-28T12:19:56.148Z,96654.1
2024-03-28T12:25:31.832Z,96656.7
2024-03-28T12:31:08.387Z,96639.2
2024-03-28T12:36:43.412Z,96631
2024-03-28T12:42:18.510Z,96613
2024-03-28T12:47:53.494Z,96609.9
2024-03-28T12:53:28.503Z,96602.4
2024-03-28T12:59:04.833Z,96601.4
2024-03-28T13:04:40.619Z,96589.4
2024-03-28T13:10:16.170Z,96578.7
2024-03-28T13:15:51.568Z,96577.2
2024-03-28T13:21:27.081Z,96572.5
2024-03-28T13:27:45.367Z,96572.2
2024-03-28T13:33:21.569Z,96559.5
2024-03-28T13:38:57.243Z,96553.7
2024-03-28T13:44:32.510Z,96547.4
2024-03-28T13:50:08.001Z,96532.7
2024-03-28T13:55:43.828Z,96529.9
2024-03-28T14:01:19.331Z,96525.1
2024-03-28T14:06:54.830Z,96526.4
2024-03-28T14:12:30.716Z,96529.5
2024-03-28T14:18:05.394Z,96527.4
2024-03-28T14:23:40.828Z,96532.8
2024-03-28T14:29:16.181Z,96521.5
2024-03-28T14:34:51.463Z,96520.2
2024-03-28T14:40:27.132Z,96519.2
2024-03-28T14:46:02.088Z,96526.9
2024-03-28T14:51:37.104Z,96511.4
2024-03-28T14:57:11.968Z,96488.4
2024-03-28T15:02:47.111Z,96483.5
2024-03-28T15:08:22.342Z,96488.9
2024-03-28T15:13:57.562Z,96489.9
2024-03-28T15:19:33.491Z,96470.2
2024-03-28T15:25:08.891Z,96453.4
2024-03-28T15:30:45.353Z,96453
2024-03-28T15:36:21.047Z,96447.3
2024-03-28T15:41:56.331Z,96420.1
2024-03-28T15:47:31.982Z,96413.1
2024-03-28T15:53:07.956Z,96403.5
2024-03-28T15:58:43.173Z,96392.5
2024-03-28T16:04:18.664Z,96370.6
2024-03-28T16:09:53.696Z,96371
2024-03-28T16:15:28.600Z,96346.4
2024-03-28T16:21:04.359Z,96360.6
2024-03-28T16:26:40.023Z,96315.9
2024-03-28T16:32:16.353Z,96337.3
2024-03-28T16:37:51.519Z,96306.6
2024-03-28T16:43:26.602Z,96295.2
2024-03-28T16:49:01.526Z,96300.5
2024-03-28T16:54:37.539Z,96298.2
2024-03-28T17:00:12.766Z,96291.7
2024-03-28T17:05:48.387Z,96291.5
2024-03-28T17:11:23.590Z,96285.4
2024-03-28T17:16:58.781Z,96263.7
2024-03-28T17:22:34.873Z,96240.1
2024-03-28T17:28:11.961Z,96240.9
2024-03-28T17:33:47.321Z,96237.5
2024-03-28T17:39:22.087Z,96244.1
2024-03-28T17:44:57.374Z,96243.6
2024-03-28T17:50:34.000Z,96240.6
2024-03-28T17:56:12.271Z,96225.4
2024-03-28T18:01:49.829Z,96221.3
2024-03-28T18:07:25.801Z,96187.4
2024-03-28T18:13:00.984Z,96179.9
2024-03-28T18:18:36.201Z,96188.2
2024-03-28T18:24:11.268Z,96176.2
2024-03-28T18:29:47.513Z,96191.9
2024-03-28T18:35:26.595Z,96178
2024-03-28T18:41:04.031Z,96179.2
2024-03-28T18:46:39.111Z,96176.7
2024-03-28T18:52:14.472Z,96163.3
2024-03-28T18:57:49.723Z,96137.1
2024-03-28T19:03:24.961Z,96149.8
2024-03-28T19:09:00.242Z,96148.2
2024-03-28T19:14:35.478Z,96148
2024-03-28T19:20:10.846Z,96156.6
2024-03-28T19:25:45.982Z,96155.4
2024-03-28T19:31:21.199Z,96178.6
2024-03-28T19:36:56.036Z,96159.3
2024-03-28T19:42:30.842Z,96176.9
2024-03-28T19:48:06.358Z,96163.7
2024-03-28T19:53:41.452Z,96130.6
2024-03-28T19:59:16.275Z,96147
2024-03-28T20:04:52.050Z,96168.8
2024-03-28T20:10:27.660Z,96171.6
2024-03-28T20:16:03.143Z,96185.2
2024-03-28T20:21:38.148Z,96198.5
2024-03-28T20:27:12.937Z,96202.1
2024-03-28T20:32:48.195Z,96173.6
2024-03-28T20:38:23.116Z,96211.4
2024-03-28T20:43:58.036Z,96197.6
2024-03-28T20:49:32.990Z,96218.4
2024-03-28T20:55:08.298Z,96211.3
2024-03-28T21:00:43.212Z,96205.5
2024-03-28T21:06:18.300Z,96202.7
2024-03-28T21:11:53.678Z,96224.2
2024-03-28T21:17:28.832Z,96201.5
2024-03-28T21:23:04.199Z,96189.6
2024-03-28T21:28:39.296Z,96178.4
2024-03-28T21:34:14.245Z,96183.4
2024-03-28T21:39:49.323Z,96183.3
2024-03-28T21:45:24.734Z,96171.8
2024-03-28T21:50:59.752Z,96179
2024-03-28T21:56:35.379Z,96172.8
2024-03-28T22:02:10.710Z,96163.6
2024-03-28T22:07:45.914Z,96173.9
2024-03-28T22:13:21.267Z,96205.9
2024-03-28T22:18:56.333Z,96217.7
2024-03-28T22:24:31.679Z,96231.4
2024-03-28T22:30:06.661Z,96211.9
2024-03-28T22:35:42.257Z,96211.3
2024-03-28T22:41:17.162Z,96211.7
2024-03-28T22:46:52.198Z,96238.8
2024-03-28T22:52:27.126Z,96239.2
2024-03-28T22:58:02.141Z,96231.2
2024-03-28T23:03:37.517Z,96237
2024-03-28T23:09:12.517Z,96220.4
2024-03-28T23:14:47.524Z,96215.1
2024-03-28T23:20:22.977Z,96215
2024-03-28T23:25:58.710Z,96232.1
2024-03-28T23:31:39.177Z,96263.4
2024-03-28T23:37:16.378Z,96252.4
2024-03-28T23:42:51.574Z,96257.2
2024-03-28T23:48:26.770Z,96280.9
2024-03-28T23:54:02.678Z,96308.5
2024-03-28T23:59:38.184Z,96310.7
